Time;durP1;ratioP1;P1;durP2;ratioP2;P2;SDS_P1;SDS_P2;PMS_P1;PMS_P2;Temp;Humidity;BMP_temperature;BMP_pressure;BME280_temperature;BME280_humidity;BME280_pressure;Samples;Min_cycle;Max_cycle;Signal;HPM_P1;HPM_P2
2021/03/15 00:02:14;;;;;;;5.47;2.35;;;;;;;6.95;44.41;100680.72;5092215;28;20123;-75
2021/03/15 00:04:42;;;;;;;6.13;2.45;;;;;;;6.96;44.64;100679.75;5092350;28;20056;-75
2021/03/15 00:07:12;;;;;;;5.30;2.20;;;;;;;6.99;44.63;100684.09;5079855;28;20466;-74
2021/03/15 00:09:39;;;;;;;5.65;2.38;;;;;;;6.98;44.61;100676.91;5090213;28;20044;-75
2021/03/15 00:12:08;;;;;;;3.20;1.80;;;;;;;6.99;44.92;100678.66;5091548;28;20040;-74
2021/03/15 00:14:35;;;;;;;5.28;2.58;;;;;;;7.00;44.73;100677.66;5077212;28;20032;-74
2021/03/15 00:17:03;;;;;;;7.30;2.35;;;;;;;6.99;44.82;100674.09;5090364;28;20051;-73
2021/03/15 00:19:30;;;;;;;6.30;2.30;;;;;;;7.00;44.88;100673.06;5093355;28;20040;-72
2021/03/15 00:22:01;;;;;;;5.78;2.10;;;;;;;7.00;44.91;100667.63;5100244;28;20359;-72
2021/03/15 00:24:29;;;;;;;5.38;2.35;;;;;;;7.02;44.85;100668.41;5100145;28;20478;-72
2021/03/15 00:26:57;;;;;;;8.00;2.22;;;;;;;7.02;45.05;100651.22;5098020;28;20403;-72
2021/03/15 00:29:24;;;;;;;5.55;2.28;;;;;;;7.03;45.04;100650.22;5094573;28;20047;-72
2021/03/15 00:31:52;;;;;;;4.35;2.25;;;;;;;7.04;45.14;100651.97;5094744;28;20115;-72
2021/03/15 00:34:19;;;;;;;7.05;2.35;;;;;;;7.03;45.22;100644.78;5094865;28;20097;-72
2021/03/15 00:36:47;;;;;;;4.90;2.30;;;;;;;7.04;45.13;100644.72;5095577;28;20048;-72
2021/03/15 00:39:14;;;;;;;5.60;2.17;;;;;;;7.05;45.13;100637.44;5093587;28;20044;-72
2021/03/15 00:41:42;;;;;;;5.47;2.13;;;;;;;7.06;45.35;100639.16;5061494;28;20060;-72
2021/03/15 00:44:10;;;;;;;5.18;2.20;;;;;;;7.06;45.33;100625.56;5090014;28;20042;-73
2021/03/15 00:46:38;;;;;;;5.85;2.30;;;;;;;7.04;45.34;100622.97;5093679;28;20036;-73
2021/03/15 00:49:06;;;;;;;4.85;2.40;;;;;;;7.05;45.48;100621.97;5092333;28;20479;-73
2021/03/15 00:51:33;;;;;;;6.72;2.13;;;;;;;7.05;45.41;100630.13;5074924;28;20044;-73
2021/03/15 00:54:00;;;;;;;5.95;2.38;;;;;;;7.05;45.39;100623.84;5096417;28;20040;-73
2021/03/15 00:56:31;;;;;;;6.60;2.25;;;;;;;7.03;45.46;100614.88;5077106;28;20047;-72
2021/03/15 00:58:59;;;;;;;7.45;2.70;;;;;;;7.05;45.72;100608.38;5089265;28;20076;-73
2021/03/15 01:01:38;;;;;;;4.60;2.30;;;;;;;7.05;45.66;100612.94;5072336;28;20048;-73
2021/03/15 01:04:09;;;;;;;4.38;2.20;;;;;;;7.05;45.73;100608.38;5092720;28;20036;-72
2021/03/15 01:06:55;;;;;;;4.57;2.10;;;;;;;7.04;45.87;100600.31;5077071;28;20505;-72
2021/03/15 01:09:30;;;;;;;5.25;2.08;;;;;;;7.04;45.67;100595.75;5092730;28;20437;-72
2021/03/15 01:11:58;;;;;;;4.47;2.15;;;;;;;7.06;45.80;100590.22;5077279;28;20032;-73
2021/03/15 01:14:28;;;;;;;5.47;2.45;;;;;;;7.07;45.86;100595.53;5077185;28;20070;-72
2021/03/15 01:17:06;;;;;;;6.00;2.17;;;;;;;7.06;45.92;100588.38;5083901;28;20430;-72
2021/03/15 01:19:37;;;;;;;5.97;2.45;;;;;;;7.07;45.98;100584.66;5082366;28;20051;-73
2021/03/15 01:22:04;;;;;;;6.03;2.22;;;;;;;7.07;45.72;100583.78;5093716;28;20133;-73
2021/03/15 01:24:32;;;;;;;5.63;2.13;;;;;;;7.06;46.00;100577.47;5097783;28;20032;-72
2021/03/15 01:27:01;;;;;;;7.00;2.50;;;;;;;7.08;46.00;100580.06;5097223;28;20460;-73
2021/03/15 01:29:30;;;;;;;5.63;2.33;;;;;;;7.07;46.06;100575.63;5094807;28;20495;-72
2021/03/15 01:31:57;;;;;;;4.68;2.10;;;;;;;7.06;46.05;100569.31;5093087;28;20054;-73
2021/03/15 01:34:24;;;;;;;5.57;2.15;;;;;;;7.07;46.03;100567.47;5095074;28;20063;-73
2021/03/15 01:37:04;;;;;;;6.22;2.50;;;;;;;7.07;46.13;100565.63;5095688;28;20043;-73
2021/03/15 01:39:32;;;;;;;7.13;2.30;;;;;;;7.08;46.10;100561.03;5094584;28;20089;-73
2021/03/15 01:46:33;;;;;;;5.68;2.22;;;;;;;6.98;46.39;100544.53;5094488;28;20047;-73
2021/03/15 01:49:01;;;;;;;5.90;2.35;;;;;;;7.01;46.34;100535.25;5094684;28;20040;-73
2021/03/15 01:51:28;;;;;;;6.97;3.00;;;;;;;7.02;46.50;100531.56;5094492;28;20098;-72
2021/03/15 01:53:57;;;;;;;7.93;2.60;;;;;;;7.02;46.39;100529.69;5078829;28;20038;-73
2021/03/15 01:56:24;;;;;;;5.90;2.45;;;;;;;7.03;46.45;100533.28;5099457;28;20040;-72
2021/03/15 01:58:52;;;;;;;5.57;2.25;;;;;;;7.02;46.51;100524.25;5093525;28;20463;-72
2021/03/15 02:01:19;;;;;;;6.28;2.55;;;;;;;7.00;46.38;100526.22;5094508;28;20506;-73
2021/03/15 02:03:49;;;;;;;6.57;2.90;;;;;;;7.01;46.71;100518.94;5094141;28;20604;-72
2021/03/15 02:06:17;;;;;;;4.18;2.53;;;;;;;6.99;46.62;100519.06;5094449;28;20369;-72
2021/03/15 02:08:44;;;;;;;5.95;2.80;;;;;;;6.98;46.54;100511.03;5091978;28;20047;-73
2021/03/15 02:11:20;;;;;;;6.72;2.97;;;;;;;6.98;47.33;100508.31;5094479;28;20043;-72
2021/03/15 02:14:00;;;;;;;5.82;2.88;;;;;;;6.95;47.58;100495.81;5093692;28;20044;-72
2021/03/15 02:16:38;;;;;;;6.57;2.70;;;;;;;6.93;47.32;100497.78;5105495;28;20048;-72
2021/03/15 02:19:56;;;;;;;5.65;2.63;;;;;;;6.89;47.81;100487.25;5107382;28;20047;-72
2021/03/15 02:22:38;;;;;;;6.25;2.80;;;;;;;6.87;47.45;100481.94;5094762;28;20126;-72
2021/03/15 02:25:39;;;;;;;6.47;2.30;;;;;;;6.85;47.72;100475.75;5103871;28;20032;-73
2021/03/15 02:28:21;;;;;;;6.85;3.03;;;;;;;6.86;47.75;100477.47;5083895;28;20463;-73
2021/03/15 02:31:22;;;;;;;5.28;2.30;;;;;;;6.85;47.84;100466.72;5093376;28;20059;-73
2021/03/15 02:34:15;;;;;;;4.35;2.10;;;;;;;6.84;47.55;100462.25;5093789;28;20491;-72
2021/03/15 02:36:46;;;;;;;3.15;1.73;;;;;;;6.82;47.28;100465.13;5092981;28;20106;-72
2021/03/15 02:39:17;;;;;;;3.92;2.40;;;;;;;6.83;47.12;100455.97;5090780;28;20075;-72
2021/03/15 02:41:47;;;;;;;3.45;1.80;;;;;;;6.83;46.94;100458.66;5075344;28;20123;-72
2021/03/15 02:44:17;;;;;;;4.93;2.15;;;;;;;6.83;46.96;100447.78;5093099;28;20044;-72
2021/03/15 02:46:46;;;;;;;5.35;2.03;;;;;;;6.83;47.22;100455.13;5093429;28;20044;-73
2021/03/15 02:49:17;;;;;;;4.15;1.80;;;;;;;6.83;47.22;100455.97;5089567;28;20048;-73
2021/03/15 02:51:49;;;;;;;3.40;2.10;;;;;;;6.83;47.24;100453.22;5091866;28;20048;-73
2021/03/15 02:54:18;;;;;;;4.50;2.17;;;;;;;6.80;47.25;100439.91;5091310;28;20046;-74
2021/03/15 02:56:49;;;;;;;4.10;1.98;;;;;;;6.82;47.31;100451.53;5098365;28;20044;-73
2021/03/15 02:59:18;;;;;;;4.38;1.95;;;;;;;6.83;47.20;100455.97;5095676;28;20036;-72
2021/03/15 03:01:47;;;;;;;5.22;2.00;;;;;;;6.83;47.43;100455.97;5093481;28;20510;-72
2021/03/15 03:04:17;;;;;;;3.55;1.90;;;;;;;6.84;47.27;100449.53;5092687;28;20127;-72
2021/03/15 03:06:46;;;;;;;4.00;2.00;;;;;;;6.83;47.49;100442.34;5093193;28;20070;-72
2021/03/15 03:09:16;;;;;;;4.97;2.15;;;;;;;6.83;47.46;100447.78;5092993;28;20071;-72
2021/03/15 03:11:44;;;;;;;4.28;1.92;;;;;;;6.83;47.32;100446.97;5105769;28;20513;-72
2021/03/15 03:14:13;;;;;;;4.13;2.13;;;;;;;6.82;47.43;100448.81;5092325;28;20052;-73
2021/03/15 03:16:42;;;;;;;3.20;1.70;;;;;;;6.82;47.29;100446.09;5092782;28;20046;-73
2021/03/15 03:19:15;;;;;;;4.22;2.53;;;;;;;6.82;47.57;100451.53;5092056;28;20050;-73
2021/03/15 03:21:43;;;;;;;4.72;1.98;;;;;;;6.80;47.27;100452.63;5093298;28;20040;-73
2021/03/15 03:24:12;;;;;;;3.97;1.80;;;;;;;6.82;47.46;100451.53;5081169;28;20507;-73
2021/03/15 03:26:43;;;;;;;4.75;2.15;;;;;;;6.82;47.52;100451.53;5085811;28;20546;-73
2021/03/15 03:29:13;;;;;;;3.35;1.77;;;;;;;6.82;47.40;100447.94;5092217;28;20050;-73
2021/03/15 03:31:43;;;;;;;4.03;2.13;;;;;;;6.82;47.57;100446.09;5100670;28;20063;-73
2021/03/15 03:34:11;;;;;;;4.53;1.92;;;;;;;6.82;47.52;100447.94;5094267;28;20039;-73
2021/03/15 03:36:41;;;;;;;4.25;2.00;;;;;;;6.81;47.73;100444.34;5092868;28;20032;-73
2021/03/15 03:39:12;;;;;;;3.70;1.83;;;;;;;6.81;47.43;100446.22;5077460;28;20047;-73
2021/03/15 03:41:40;;;;;;;4.88;1.75;;;;;;;6.81;47.60;100443.47;5092280;28;20043;-73
2021/03/15 03:44:07;;;;;;;3.08;1.98;;;;;;;6.82;47.83;100445.22;5092296;28;20044;-73
2021/03/15 03:46:35;;;;;;;4.70;1.80;;;;;;;6.81;47.46;100447.06;5092067;28;20402;-73
2021/03/15 03:49:05;;;;;;;3.60;1.88;;;;;;;6.82;47.74;100445.22;5091752;28;20048;-73
2021/03/15 03:51:41;;;;;;;4.72;1.75;;;;;;;6.85;48.39;100451.28;5074359;28;20047;-73
2021/03/15 03:54:13;;;;;;;4.07;1.90;;;;;;;6.85;48.20;100447.69;5088621;28;20424;-73
2021/03/15 03:56:48;;;;;;;3.35;1.80;;;;;;;6.82;48.24;100440.66;5112567;28;20039;-73
2021/03/15 03:59:19;;;;;;;3.53;1.83;;;;;;;6.84;47.71;100444.09;5087394;28;20045;-73
2021/03/15 04:01:49;;;;;;;4.45;1.90;;;;;;;6.87;47.97;100451.16;5061320;28;20051;-73
2021/03/15 04:04:22;;;;;;;3.92;2.13;;;;;;;6.88;48.32;100450.19;5091066;28;20040;-73
2021/03/15 04:06:52;;;;;;;4.20;2.20;;;;;;;6.86;48.01;100446.69;5106048;28;20060;-73
2021/03/15 04:09:27;;;;;;;4.78;2.00;;;;;;;6.90;48.39;100456.38;5098356;28;20097;-73
2021/03/15 04:11:59;;;;;;;5.20;2.30;;;;;;;6.89;48.12;100457.34;5078175;28;20044;-73
2021/03/15 04:14:31;;;;;;;3.53;2.10;;;;;;;6.89;48.11;100462.78;5098583;28;20432;-73
2021/03/15 04:17:02;;;;;;;5.35;2.80;;;;;;;6.89;48.06;100466.38;5067456;28;20036;-73
2021/03/15 04:19:36;;;;;;;5.10;2.50;;;;;;;6.91;48.10;100467.09;5098768;28;20105;-73
2021/03/15 04:22:08;;;;;;;5.20;3.13;;;;;;;6.92;48.25;100466.13;5079270;28;20166;-73
2021/03/15 04:24:39;;;;;;;5.10;2.95;;;;;;;6.93;48.25;100477.88;5095584;28;20035;-73
2021/03/15 04:27:10;;;;;;;4.32;2.58;;;;;;;6.92;48.08;100478.84;5081824;28;20043;-73
2021/03/15 04:29:41;;;;;;;5.93;2.67;;;;;;;6.93;47.83;100486.03;5091042;28;20039;-73
2021/03/15 04:32:11;;;;;;;3.97;2.42;;;;;;;6.95;47.96;100489.50;5085616;28;20415;-73
2021/03/15 04:34:40;;;;;;;6.63;3.13;;;;;;;6.94;48.14;100490.47;5067307;28;20407;-73
2021/03/15 04:37:10;;;;;;;5.18;2.70;;;;;;;6.94;48.08;100494.06;5091829;28;20029;-72
2021/03/15 04:39:42;;;;;;;4.50;2.60;;;;;;;6.92;47.95;100498.75;5073297;28;20097;-73
2021/03/15 04:42:12;;;;;;;5.25;2.30;;;;;;;6.94;47.99;100498.63;5080182;28;20036;-73
2021/03/15 04:44:44;;;;;;;5.40;2.53;;;;;;;6.93;48.08;100491.47;5086644;28;20036;-73
2021/03/15 04:47:13;;;;;;;4.22;2.63;;;;;;;6.94;47.99;100504.94;5084721;28;20041;-73
2021/03/15 04:49:42;;;;;;;4.35;2.35;;;;;;;6.95;47.86;100500.38;5084751;28;20055;-72
2021/03/15 04:52:11;;;;;;;3.78;2.28;;;;;;;6.92;47.72;100506.03;5078612;28;20118;-73
2021/03/15 04:54:39;;;;;;;4.90;2.92;;;;;;;6.92;47.95;100506.03;5072539;28;20033;-72
2021/03/15 04:57:11;;;;;;;5.78;2.85;;;;;;;6.93;48.25;100508.66;5073408;28;20402;-72
2021/03/15 04:59:49;;;;;;;6.60;3.47;;;;;;;6.90;47.97;100516.19;5092252;28;20084;-73
2021/03/15 05:02:28;;;;;;;6.07;3.63;;;;;;;6.90;48.03;100527.06;5095814;28;20072;-73
2021/03/15 05:04:59;;;;;;;6.20;3.30;;;;;;;6.90;48.10;100522.50;5083169;28;20032;-72
2021/03/15 05:07:27;;;;;;;6.13;3.65;;;;;;;6.89;47.80;100522.59;5094418;28;20117;-73
2021/03/15 05:09:59;;;;;;;4.90;3.05;;;;;;;6.89;48.13;100525.31;5094753;28;20029;-72
2021/03/15 05:12:37;;;;;;;5.03;2.85;;;;;;;6.87;48.23;100527.28;5095819;28;20036;-72
2021/03/15 05:15:14;;;;;;;4.82;3.13;;;;;;;6.85;48.00;100526.53;5094659;28;20040;-73
2021/03/15 05:17:42;;;;;;;5.88;3.22;;;;;;;6.83;47.86;100534.78;5073380;28;20450;-73
2021/03/15 05:20:14;;;;;;;5.22;3.03;;;;;;;6.84;47.87;100536.53;5093238;28;20060;-73
2021/03/15 05:22:42;;;;;;;5.50;3.03;;;;;;;6.83;47.94;100547.56;5077776;28;20050;-72
2021/03/15 05:25:13;;;;;;;4.10;2.55;;;;;;;6.82;48.03;100543.09;5100474;28;20039;-72
2021/03/15 05:27:43;;;;;;;5.15;2.95;;;;;;;6.82;48.09;100543.09;5085533;28;20048;-72
2021/03/15 05:30:21;;;;;;;5.20;3.10;;;;;;;6.80;48.18;100547.78;5093719;28;20505;-72
2021/03/15 05:32:51;;;;;;;4.82;3.17;;;;;;;6.79;47.99;100560.50;5093621;28;20040;-72
2021/03/15 05:35:23;;;;;;;4.88;3.35;;;;;;;6.75;47.66;100558.97;5095933;28;20111;-73
2021/03/15 05:37:51;;;;;;;5.13;3.33;;;;;;;6.75;48.00;100561.69;5095137;28;20676;-73
2021/03/15 05:40:22;;;;;;;5.70;3.50;;;;;;;6.75;48.02;100567.13;5092625;28;20491;-71
2021/03/15 05:43:32;;;;;;;5.65;3.33;;;;;;;6.72;48.42;100568.25;5095319;28;20441;-73
2021/03/15 05:46:28;;;;;;;6.18;3.05;;;;;;;6.71;48.46;100573.78;5059538;28;20117;-73
2021/03/15 05:49:20;;;;;;;4.38;2.50;;;;;;;6.69;48.24;100575.75;5064205;28;20422;-74
2021/03/15 05:52:04;;;;;;;3.80;2.08;;;;;;;6.67;48.32;100584.00;5079629;28;20038;-75
2021/03/15 05:54:44;;;;;;;;;;;;;;;6.42;48.80;100591.41;5083751;28;20040;-74
2021/03/15 05:57:46;;;;;;;3.30;1.77;;;;;;;6.62;48.33;100598.94;5076091;28;19931;-74
2021/03/15 06:00:26;;;;;;;3.90;1.98;;;;;;;6.64;48.08;100600.56;5044706;28;20052;-74
2021/03/15 06:03:22;;;;;;;4.93;2.20;;;;;;;6.63;48.28;100603.41;5094446;28;20105;-74
2021/03/15 06:05:56;;;;;;;5.10;2.75;;;;;;;6.62;47.99;100598.94;5079388;28;20035;-74
2021/03/15 06:08:33;;;;;;;5.85;3.05;;;;;;;6.61;48.05;100606.22;5093891;28;20039;-74
2021/03/15 06:11:05;;;;;;;5.45;3.17;;;;;;;6.60;48.03;100619.91;5082860;28;20048;-74
2021/03/15 06:13:39;;;;;;;6.80;3.55;;;;;;;6.59;47.81;100616.34;5093615;28;20036;-75
2021/03/15 06:16:09;;;;;;;5.93;2.88;;;;;;;6.60;48.10;100622.63;5094019;28;20050;-75
2021/03/15 06:18:39;;;;;;;4.78;2.72;;;;;;;6.60;47.94;100628.94;5093252;28;20040;-75
2021/03/15 06:21:10;;;;;;;4.28;2.80;;;;;;;6.61;48.03;100627.09;5104628;28;20036;-76
2021/03/15 06:23:44;;;;;;;5.13;2.42;;;;;;;6.60;48.00;100633.50;5093559;28;20538;-75
2021/03/15 06:26:12;;;;;;;4.28;2.40;;;;;;;6.59;48.00;100634.50;5059170;28;20037;-75
2021/03/15 06:28:39;;;;;;;3.95;2.60;;;;;;;6.58;47.88;100635.50;5093414;28;20040;-75
2021/03/15 06:31:10;;;;;;;5.55;2.80;;;;;;;6.58;48.23;100639.06;5094159;28;20544;-75
2021/03/15 06:33:41;;;;;;;4.93;2.83;;;;;;;6.57;48.16;100644.63;5090678;28;20135;-75
2021/03/15 06:36:13;;;;;;;;;;;;;;;6.32;48.92;100654.56;5094777;28;20208;-75
2021/03/15 06:38:41;;;;;;;5.68;2.28;;;;;;;6.51;48.09;100654.06;5095907;28;19920;-74
2021/03/15 06:41:11;;;;;;;5.30;2.38;;;;;;;6.55;47.91;100662.88;5094207;28;20032;-74
2021/03/15 06:43:40;;;;;;;5.40;2.40;;;;;;;6.56;48.00;100661.91;5094742;28;20036;-75
2021/03/15 06:46:09;;;;;;;4.25;2.45;;;;;;;6.55;48.16;100650.16;5088719;28;20072;-75
2021/03/15 06:48:39;;;;;;;4.72;2.60;;;;;;;6.53;48.09;100660.28;5089205;28;20394;-74
2021/03/15 06:51:06;;;;;;;4.25;2.60;;;;;;;6.53;48.35;100656.69;5089891;28;20052;-75
2021/03/15 06:53:41;;;;;;;5.63;2.53;;;;;;;6.55;48.38;100669.19;5091302;28;20059;-75
2021/03/15 06:56:13;;;;;;;4.43;2.60;;;;;;;6.57;48.98;100669.97;5093116;28;20069;-74
2021/03/15 06:58:51;;;;;;;4.40;2.60;;;;;;;6.57;48.74;100679.97;5096278;28;20044;-74
2021/03/15 07:01:25;;;;;;;5.50;2.70;;;;;;;6.58;48.74;100685.25;5091078;28;20106;-76
2021/03/15 07:04:04;;;;;;;4.60;2.28;;;;;;;6.61;49.37;100698.63;5086811;28;20040;-74
2021/03/15 07:06:35;;;;;;;4.55;2.53;;;;;;;6.62;48.93;100697.66;5069445;28;20484;-74
2021/03/15 07:09:11;;;;;;;5.30;3.28;;;;;;;6.66;49.16;100714.63;5087618;28;20050;-75
2021/03/15 07:12:01;;;;;;;4.88;3.10;;;;;;;6.65;49.24;100713.75;5090712;28;20040;-75
2021/03/15 07:14:35;;;;;;;5.18;3.10;;;;;;;6.66;48.63;100722.78;5090377;28;20044;-74
2021/03/15 07:17:04;;;;;;;4.45;2.58;;;;;;;6.68;48.66;100724.38;5087969;28;20070;-75
2021/03/15 07:19:43;;;;;;;4.32;2.70;;;;;;;6.72;49.09;100734.06;5093385;28;20043;-76
2021/03/15 07:22:26;;;;;;;4.53;2.80;;;;;;;6.71;48.82;100726.91;5077228;28;20456;-74
2021/03/15 07:25:11;;;;;;;4.85;3.00;;;;;;;6.75;49.48;100739.25;5093453;28;20480;-75
2021/03/15 07:27:41;;;;;;;4.90;3.03;;;;;;;6.75;48.55;100741.97;5091373;28;20437;-73
2021/03/15 07:30:32;;;;;;;5.57;3.13;;;;;;;6.76;49.21;100731.97;5093571;28;20042;-75
2021/03/15 07:33:02;;;;;;;6.85;3.47;;;;;;;6.76;48.93;100740.13;5090932;28;21853;-75
2021/03/15 07:35:32;;;;;;;5.68;3.13;;;;;;;6.77;48.75;100736.44;5093646;28;20036;-74
2021/03/15 07:38:00;;;;;;;6.20;3.50;;;;;;;6.78;49.08;100740.03;5084604;28;20135;-74
2021/03/15 07:40:34;;;;;;;6.50;3.25;;;;;;;6.83;49.11;100751.47;5087221;28;20051;-75
2021/03/15 07:43:04;;;;;;;6.43;3.47;;;;;;;6.82;49.00;100750.59;5091956;27;20048;-74
2021/03/15 07:45:37;;;;;;;7.90;3.83;;;;;;;6.86;48.98;100756.66;5071354;28;20065;-73
2021/03/15 07:48:08;;;;;;;4.78;2.80;;;;;;;6.88;49.26;100761.00;5092405;28;20048;-73
2021/03/15 07:50:37;;;;;;;6.53;3.40;;;;;;;6.91;49.14;100754.50;5089530;28;20061;-73
2021/03/15 07:53:05;;;;;;;5.30;3.22;;;;;;;6.94;49.50;100770.56;5086640;28;20044;-73
2021/03/15 07:55:38;;;;;;;6.22;3.35;;;;;;;7.01;49.20;100774.56;5093933;28;20033;-73
2021/03/15 07:58:28;;;;;;;5.35;3.30;;;;;;;7.07;49.40;100768.75;5085068;28;20138;-72
2021/03/15 08:00:57;;;;;;;5.63;3.08;;;;;;;7.10;49.10;100776.66;5082778;28;20036;-72
2021/03/15 08:03:26;;;;;;;6.07;2.88;;;;;;;7.17;49.46;100782.50;5087952;28;20052;-73
2021/03/15 08:05:56;;;;;;;7.07;3.58;;;;;;;7.22;49.25;100783.06;5072295;28;20032;-73
2021/03/15 08:08:27;;;;;;;5.47;2.97;;;;;;;7.24;48.97;100789.28;5090634;28;20036;-73
2021/03/15 08:10:56;;;;;;;6.28;3.22;;;;;;;7.32;48.99;100789.56;5086255;28;20071;-76
2021/03/15 08:13:27;;;;;;;5.63;3.33;;;;;;;7.34;49.23;100796.63;5094462;28;20044;-77
2021/03/15 08:16:00;;;;;;;7.03;3.03;;;;;;;7.40;49.33;100800.75;5089422;28;20551;-74
2021/03/15 08:18:30;;;;;;;6.68;3.10;;;;;;;7.39;48.90;100789.00;5079017;28;20040;-72
2021/03/15 08:21:02;;;;;;;6.78;3.42;;;;;;;7.45;49.03;100802.16;5096190;28;20499;-72
2021/03/15 08:23:31;;;;;;;4.82;2.63;;;;;;;7.44;48.57;100808.56;5082090;28;20133;-72
2021/03/15 08:26:06;;;;;;;4.55;2.88;;;;;;;7.49;48.65;100803.66;5089865;28;20180;-73
2021/03/15 08:28:34;;;;;;;5.03;2.92;;;;;;;7.48;48.40;100812.81;5068726;28;20103;-73
2021/03/15 08:31:13;;;;;;;4.45;2.75;;;;;;;7.52;48.34;100820.75;5088991;28;20043;-73
2021/03/15 08:33:41;;;;;;;6.75;2.97;;;;;;;7.49;48.12;100824.53;5091668;28;20031;-73
2021/03/15 08:36:09;;;;;;;5.43;2.95;;;;;;;7.49;48.04;100822.69;5090272;28;20036;-73
2021/03/15 08:38:37;;;;;;;5.97;3.30;;;;;;;7.50;48.08;100821.72;5094614;28;20045;-74
2021/03/15 08:41:07;;;;;;;6.63;3.15;;;;;;;7.51;48.08;100830.75;5074576;28;20067;-72
2021/03/15 08:43:53;;;;;;;6.15;2.97;;;;;;;7.52;48.24;100826.19;5091452;28;20048;-72
2021/03/15 08:46:34;;;;;;;6.15;2.97;;;;;;;7.53;47.99;100839.69;5092904;28;20047;-73
2021/03/15 08:49:05;;;;;;;6.07;3.15;;;;;;;7.52;48.03;100834.34;5092593;28;20044;-73
2021/03/15 08:51:48;;;;;;;6.13;3.05;;;;;;;7.53;48.19;100834.25;5092282;28;20046;-73
2021/03/15 08:54:17;;;;;;;6.78;3.42;;;;;;;7.49;48.00;100840.88;5096361;28;20063;-74
2021/03/15 08:56:47;;;;;;;6.35;3.03;;;;;;;7.52;47.85;100847.97;5092954;28;20043;-73
2021/03/15 08:59:15;;;;;;;6.72;3.38;;;;;;;7.53;47.95;100841.53;5092615;28;20044;-75
2021/03/15 09:01:51;;;;;;;6.78;2.80;;;;;;;7.55;47.88;100842.31;5097165;28;20101;-74
2021/03/15 09:04:45;;;;;;;6.53;3.15;;;;;;;7.54;47.95;100846.88;5095482;28;20044;-74
2021/03/15 09:07:42;;;;;;;6.65;3.08;;;;;;;7.55;47.96;100845.91;5085556;28;20051;-74
2021/03/15 09:10:42;;;;;;;5.35;2.97;;;;;;;7.50;48.04;100838.06;5079258;28;20059;-73
2021/03/15 09:13:30;;;;;;;5.97;2.70;;;;;;;7.58;47.95;100834.75;5091491;28;20124;-73
2021/03/15 09:16:03;;;;;;;6.28;3.75;;;;;;;7.61;47.71;100839.13;5093717;28;20101;-73
2021/03/15 09:18:48;;;;;;;6.45;2.90;;;;;;;7.63;47.47;100838.03;5095598;28;20086;-73
2021/03/15 09:21:46;;;;;;;8.07;2.83;;;;;;;7.63;47.61;100835.31;5091433;28;20040;-74
2021/03/15 09:24:52;;;;;;;5.93;2.75;;;;;;;7.66;47.73;100837.78;5103967;28;20051;-73
2021/03/15 09:27:34;;;;;;;5.93;3.05;;;;;;;7.69;48.03;100837.56;5098679;28;20039;-71
2021/03/15 09:30:07;;;;;;;5.90;2.85;;;;;;;7.70;47.86;100843.88;5076506;28;20486;-72
2021/03/15 09:32:36;;;;;;;6.23;3.10;;;;;;;7.72;47.68;100845.50;5086895;28;20047;-73
2021/03/15 09:35:32;;;;;;;5.65;2.72;;;;;;;7.77;47.78;100854.19;5085198;28;20305;-73
2021/03/15 09:38:03;;;;;;;5.88;2.90;;;;;;;7.78;47.72;100857.78;5093104;28;20036;-73
2021/03/15 09:40:34;;;;;;;5.28;2.85;;;;;;;7.80;47.41;100869.44;5082828;28;20400;-72
2021/03/15 09:43:19;;;;;;;7.32;3.03;;;;;;;7.81;47.76;100863.88;5099041;28;20044;-71
2021/03/15 09:45:55;;;;;;;7.50;3.05;;;;;;;7.82;48.03;100862.00;5082242;28;20036;-71
2021/03/15 09:48:24;;;;;;;8.27;3.40;;;;;;;7.83;47.84;100858.31;5069116;28;20067;-71
2021/03/15 09:50:55;;;;;;;7.18;3.45;;;;;;;7.84;47.90;100866.38;5096579;28;20553;-73
2021/03/15 09:53:31;;;;;;;6.68;2.83;;;;;;;7.87;47.97;100860.69;5083560;28;20040;-72
2021/03/15 09:56:04;;;;;;;5.40;2.70;;;;;;;7.90;48.03;100865.03;5073466;28;20434;-71
2021/03/15 09:58:37;;;;;;;6.70;2.95;;;;;;;7.95;48.31;100867.41;5072406;28;20068;-71
2021/03/15 10:01:10;;;;;;;6.60;2.77;;;;;;;7.99;48.01;100860.75;5075901;28;20036;-72
2021/03/15 10:03:57;;;;;;;5.47;2.63;;;;;;;8.05;48.43;100861.16;5085740;28;20307;-71
2021/03/15 10:06:45;;;;;;;4.13;1.85;;;;;;;8.13;48.30;100856.00;5092793;28;20066;-71
2021/03/15 10:09:33;;;;;;;5.72;2.40;;;;;;;8.23;48.06;100867.03;5089851;28;20117;-72
2021/03/15 10:12:20;;;;;;;4.43;2.20;;;;;;;8.33;47.38;100859.91;5095916;28;20041;-71
2021/03/15 10:15:07;;;;;;;6.28;2.58;;;;;;;8.40;47.66;100861.16;5080333;28;20139;-71
2021/03/15 10:17:45;;;;;;;7.72;2.05;;;;;;;8.48;47.41;100866.94;5086082;28;20492;-74
2021/03/15 10:20:51;;;;;;;6.97;2.10;;;;;;;8.53;46.69;100872.91;5073480;28;20066;-72
2021/03/15 10:23:23;;;;;;;5.13;1.90;;;;;;;8.60;46.37;100873.31;5062757;28;20376;-72
2021/03/15 10:25:56;;;;;;;5.40;2.30;;;;;;;8.67;45.96;100876.41;5074242;28;20056;-72
2021/03/15 10:28:29;;;;;;;4.68;1.70;;;;;;;8.69;45.96;100879.91;5068274;28;20038;-72
2021/03/15 10:31:19;;;;;;;5.38;1.67;;;;;;;8.69;45.94;100890.81;5072958;28;20052;-71
2021/03/15 10:33:49;;;;;;;4.53;1.60;;;;;;;8.71;45.77;100897.88;5080051;28;20129;-70
2021/03/15 10:36:20;;;;;;;5.40;1.60;;;;;;;8.72;45.71;100899.63;5064888;28;20036;-72
2021/03/15 10:39:01;;;;;;;4.53;1.50;;;;;;;8.69;45.85;100899.84;5091074;28;20179;-72
2021/03/15 10:41:31;;;;;;;5.40;1.67;;;;;;;8.70;45.66;100901.59;5094449;28;20063;-72
2021/03/15 10:44:19;;;;;;;3.65;1.35;;;;;;;8.68;45.65;100913.59;5070328;28;20064;-72
2021/03/15 10:46:52;;;;;;;4.00;1.40;;;;;;;8.63;45.46;100925.75;5082983;28;20035;-72
2021/03/15 10:49:22;;;;;;;4.05;1.20;;;;;;;8.64;45.62;100921.19;5072780;28;20036;-72
2021/03/15 10:51:54;;;;;;;4.50;1.20;;;;;;;8.60;45.50;100916.94;5091643;28;20617;-71
2021/03/15 10:54:33;;;;;;;4.15;1.10;;;;;;;8.62;45.21;100914.97;5092707;28;20040;-70
2021/03/15 10:57:19;;;;;;;4.20;1.10;;;;;;;8.58;44.91;100917.03;5073607;28;20495;-70
2021/03/15 10:59:51;;;;;;;3.17;1.10;;;;;;;8.54;45.63;100904.66;5062272;28;20550;-71
2021/03/15 11:02:23;;;;;;;3.25;1.30;;;;;;;8.56;46.03;100910.84;5070172;28;20456;-71
2021/03/15 11:04:59;;;;;;;4.70;1.30;;;;;;;8.58;45.85;100908.00;5081910;28;20048;-71
2021/03/15 11:07:37;;;;;;;2.35;1.10;;;;;;;8.60;45.84;100897.84;5068237;28;20079;-71
2021/03/15 11:10:13;;;;;;;3.20;1.30;;;;;;;8.62;45.90;100895.88;5066085;28;20127;-72
2021/03/15 11:12:51;;;;;;;3.60;1.50;;;;;;;8.69;45.93;100894.41;5075497;28;20059;-72
2021/03/15 11:15:32;;;;;;;3.13;1.25;;;;;;;8.75;45.78;100907.56;5084417;28;20114;-71
2021/03/15 11:18:13;;;;;;;2.72;1.17;;;;;;;8.78;46.18;100901.88;5084501;28;20044;-72
2021/03/15 11:20:48;;;;;;;3.22;1.25;;;;;;;8.87;46.05;100909.34;5072408;28;20036;-72
2021/03/15 11:23:32;;;;;;;1.50;0.85;;;;;;;8.96;44.62;100910.47;5072546;28;20039;-72
2021/03/15 11:26:07;;;;;;;4.25;1.70;;;;;;;8.98;45.22;100906.63;5085874;28;20070;-72
2021/03/15 11:28:38;;;;;;;3.92;1.02;;;;;;;9.04;44.54;100910.75;5069591;28;21522;-74
2021/03/15 11:31:14;;;;;;;3.67;1.05;;;;;;;9.08;43.95;100909.50;5075779;28;20044;-73
2021/03/15 11:33:49;;;;;;;4.82;1.40;;;;;;;9.11;44.38;100900.19;5071186;28;20035;-73
2021/03/15 11:36:28;;;;;;;2.22;0.98;;;;;;;9.14;44.13;100906.25;5070138;28;20047;-73
2021/03/15 11:39:07;;;;;;;2.70;1.10;;;;;;;9.17;43.98;100919.69;5075119;28;20483;-72
2021/03/15 11:41:57;;;;;;;4.75;1.00;;;;;;;9.18;43.95;100918.69;5084116;28;20486;-72
2021/03/15 11:44:29;;;;;;;2.40;1.05;;;;;;;9.21;43.49;100906.66;5088464;28;20796;-72
2021/03/15 11:46:56;;;;;;;3.55;1.00;;;;;;;9.22;43.38;100922.03;5067747;28;20040;-73
2021/03/15 11:49:35;;;;;;;2.08;0.80;;;;;;;9.21;43.26;100913.00;5090551;28;20058;-73
2021/03/15 11:52:23;;;;;;;2.90;0.90;;;;;;;9.24;41.75;100914.59;5070678;28;20479;-73
2021/03/15 11:55:09;;;;;;;2.00;0.93;;;;;;;9.21;43.16;100912.13;5095633;28;20058;-75
2021/03/15 11:57:38;;;;;;;2.88;0.80;;;;;;;9.22;42.72;100916.56;5079670;28;20719;-75
2021/03/15 12:00:10;;;;;;;3.10;0.90;;;;;;;9.23;42.35;100918.31;5090719;28;20048;-73
2021/03/15 12:02:44;;;;;;;3.72;1.23;;;;;;;9.21;42.62;100904.81;5091549;28;20050;-73
2021/03/15 12:05:32;;;;;;;1.95;0.80;;;;;;;9.21;42.94;100912.13;5091442;28;20352;-72
2021/03/15 12:08:04;;;;;;;2.67;0.75;;;;;;;9.23;42.93;100916.44;5071204;28;20050;-73
2021/03/15 12:10:33;;;;;;;3.30;1.05;;;;;;;9.25;42.77;100919.06;5071578;28;20044;-73
2021/03/15 12:13:02;;;;;;;2.45;0.85;;;;;;;9.25;42.67;100906.28;5075449;28;20479;-72